LFRK METAR and TAF | Updated Today

LFRK METAR

Caen-Carpiquet Airport

Observation time: 30 min. ago

LFRK 061900Z AUTO 28003KT CAVOK 11/09 Q1030 NOSIG

Need help? Read our tutorial on how to read METARs or read the parsed version below.

Caen-Carpiquet Airport (LFRK) METAR

  • Weather conditions on Thu, 06 Oct 2022 19:00:00 +0000 (30 min. ago):
  • Present conditions: Dry
  • Clouds: Clear skies
  • Visibility: Greater than 10 km
  • Wind: 280 degrees at 3 knots
  • Temperature: 11 celsius
  • Dew point: 9 celsius
  • Pressure: 1030 millibars
  • Remarks: None


Useful to know...

LFRK TAF

Caen-Carpiquet Airport

TAF LFRK 061400Z 0615/0624 24006KT 9999 SCT040
Observation time: 5:30 hr. ago
Need help? Read our tutorial on how to read TAFs or read the parsed version below.

Parsed version of TAF for Caen-Carpiquet Airport (LFRK)

  • From 06 October at 15:00 UTC, to day 06 of the month at 24:00 UTC
  • Clouds: Scattered at 1219 meters
  • Visibility: Greater than 10 km
  • Wind: 240 degrees at 6